Arapoema, Brazil
Current Conditions -  °F | °C
As of 5:00 AM on Thursday 23 Oct 2014 (Local Time) from SBMA Reporting Station
Thunderstorm Thunderstorm  
Wind Chill: 73°   Ceiling: 10000
Heat Index: 73°   Visibility: 5mi
Dew Point: 72°   Wind: 2mph
Humidity: 94%   Direction: 320°NW
Pressure: NA   Gusts: NA
Location:  7.66°S, 49.06°W
Report Text: SBMA 230800Z 32002KT 8000 -TSRA FEW010 FEW030CB OVC100 23/22 Q1013
Loading
Personal Weather Stations






























Interactive Weather Map
Tropical Storm Tracking
New forecast layout! Learn more

10-Day Weather Forecast

Advertisements
Track Severe Weather on mobile